sensor_id;sensor_type;location;lat;lon;timestamp;temperature;humidity
24618;DHT22;12762;51.730;5.356;2022-08-04T00:02:24;24.00;60.00
24618;DHT22;12762;51.730;5.356;2022-08-04T00:04:59;24.00;59.90
24618;DHT22;12762;51.730;5.356;2022-08-04T00:07:42;23.90;60.00
24618;DHT22;12762;51.730;5.356;2022-08-04T00:10:13;23.90;59.30
24618;DHT22;12762;51.730;5.356;2022-08-04T00:12:47;23.80;59.80
24618;DHT22;12762;51.730;5.356;2022-08-04T00:15:16;23.80;60.40
24618;DHT22;12762;51.730;5.356;2022-08-04T00:18:00;23.80;60.20
24618;DHT22;12762;51.730;5.356;2022-08-04T00:20:31;23.70;60.20
24618;DHT22;12762;51.730;5.356;2022-08-04T00:23:00;23.60;60.20
24618;DHT22;12762;51.730;5.356;2022-08-04T00:25:28;23.60;60.70
24618;DHT22;12762;51.730;5.356;2022-08-04T00:27:55;23.50;60.10
24618;DHT22;12762;51.730;5.356;2022-08-04T00:30:21;23.50;60.80
24618;DHT22;12762;51.730;5.356;2022-08-04T00:32:51;23.50;61.50
24618;DHT22;12762;51.730;5.356;2022-08-04T00:35:19;23.50;61.10
24618;DHT22;12762;51.730;5.356;2022-08-04T00:37:46;23.40;60.80
24618;DHT22;12762;51.730;5.356;2022-08-04T00:49:12;23.30;60.70
24618;DHT22;12762;51.730;5.356;2022-08-04T00:51:54;23.20;60.20
24618;DHT22;12762;51.730;5.356;2022-08-04T01:18:17;22.80;62.50
24618;DHT22;12762;51.730;5.356;2022-08-04T01:29:26;22.70;61.70
24618;DHT22;12762;51.730;5.356;2022-08-04T01:32:25;22.60;62.00
24618;DHT22;12762;51.730;5.356;2022-08-04T01:35:08;22.60;62.50
24618;DHT22;12762;51.730;5.356;2022-08-04T01:40:18;22.60;62.50
24618;DHT22;12762;51.730;5.356;2022-08-04T01:42:50;22.60;62.80
24618;DHT22;12762;51.730;5.356;2022-08-04T01:45:17;22.50;63.20
24618;DHT22;12762;51.730;5.356;2022-08-04T01:47:52;22.50;63.60
24618;DHT22;12762;51.730;5.356;2022-08-04T01:50:21;22.50;63.40
24618;DHT22;12762;51.730;5.356;2022-08-04T01:52:51;22.50;63.50
24618;DHT22;12762;51.730;5.356;2022-08-04T01:55:18;22.40;63.20
24618;DHT22;12762;51.730;5.356;2022-08-04T01:57:50;22.40;63.00
24618;DHT22;12762;51.730;5.356;2022-08-04T02:00:21;22.40;64.00
24618;DHT22;12762;51.730;5.356;2022-08-04T02:02:49;22.40;64.30
24618;DHT22;12762;51.730;5.356;2022-08-04T02:05:18;22.30;64.40
24618;DHT22;12762;51.730;5.356;2022-08-04T02:08:11;22.30;63.80
24618;DHT22;12762;51.730;5.356;2022-08-04T02:16:39;22.20;63.70
24618;DHT22;12762;51.730;5.356;2022-08-04T02:19:32;22.20;64.90
24618;DHT22;12762;51.730;5.356;2022-08-04T02:22:06;22.20;63.80
24618;DHT22;12762;51.730;5.356;2022-08-04T02:24:39;22.20;65.10
24618;DHT22;12762;51.730;5.356;2022-08-04T02:27:10;22.20;65.30
24618;DHT22;12762;51.730;5.356;2022-08-04T02:32:25;22.20;64.90
24618;DHT22;12762;51.730;5.356;2022-08-04T02:35:08;22.10;65.90
24618;DHT22;12762;51.730;5.356;2022-08-04T02:37:47;22.10;66.20
24618;DHT22;12762;51.730;5.356;2022-08-04T02:40:19;22.10;66.10
24618;DHT22;12762;51.730;5.356;2022-08-04T02:42:48;22.10;66.40
24618;DHT22;12762;51.730;5.356;2022-08-04T02:45:18;22.00;66.40
24618;DHT22;12762;51.730;5.356;2022-08-04T02:47:47;22.00;65.70
24618;DHT22;12762;51.730;5.356;2022-08-04T02:50:36;22.00;66.40
24618;DHT22;12762;51.730;5.356;2022-08-04T02:53:03;22.00;66.70
24618;DHT22;12762;51.730;5.356;2022-08-04T02:55:35;21.90;67.10
24618;DHT22;12762;51.730;5.356;2022-08-04T02:58:04;21.90;66.80
24618;DHT22;12762;51.730;5.356;2022-08-04T03:00:32;21.90;67.00
24618;DHT22;12762;51.730;5.356;2022-08-04T03:09:04;21.80;67.30
24618;DHT22;12762;51.730;5.356;2022-08-04T03:12:16;21.80;67.20
24618;DHT22;12762;51.730;5.356;2022-08-04T03:18:14;21.70;67.60
24618;DHT22;12762;51.730;5.356;2022-08-04T03:21:21;21.60;66.80
24618;DHT22;12762;51.730;5.356;2022-08-04T03:24:32;21.60;67.00
24618;DHT22;12762;51.730;5.356;2022-08-04T03:30:09;21.60;67.30
24618;DHT22;12762;51.730;5.356;2022-08-04T03:39:02;21.50;67.50
24618;DHT22;12762;51.730;5.356;2022-08-04T03:42:19;21.50;68.00
24618;DHT22;12762;51.730;5.356;2022-08-04T03:45:38;21.50;68.00
24618;DHT22;12762;51.730;5.356;2022-08-04T03:50:45;21.50;69.20
24618;DHT22;12762;51.730;5.356;2022-08-04T04:00:04;21.50;69.10
24618;DHT22;12762;51.730;5.356;2022-08-04T04:11:37;21.40;68.80
24618;DHT22;12762;51.730;5.356;2022-08-04T04:20:19;21.40;67.80
24618;DHT22;12762;51.730;5.356;2022-08-04T04:31:32;21.30;69.20
24618;DHT22;12762;51.730;5.356;2022-08-04T04:48:13;21.40;69.50
24618;DHT22;12762;51.730;5.356;2022-08-04T04:56:07;21.50;70.10
24618;DHT22;12762;51.730;5.356;2022-08-04T04:58:36;21.50;70.50
24618;DHT22;12762;51.730;5.356;2022-08-04T05:10:07;21.70;70.40
24618;DHT22;12762;51.730;5.356;2022-08-04T05:16:17;21.80;71.60
24618;DHT22;12762;51.730;5.356;2022-08-04T05:18:57;22.00;71.00
24618;DHT22;12762;51.730;5.356;2022-08-04T05:21:42;22.00;71.20
24618;DHT22;12762;51.730;5.356;2022-08-04T05:24:16;22.10;71.20
24618;DHT22;12762;51.730;5.356;2022-08-04T05:26:49;22.20;71.60
24618;DHT22;12762;51.730;5.356;2022-08-04T05:29:27;22.20;71.60
24618;DHT22;12762;51.730;5.356;2022-08-04T05:31:58;22.30;71.70
24618;DHT22;12762;51.730;5.356;2022-08-04T05:34:31;22.30;71.20
24618;DHT22;12762;51.730;5.356;2022-08-04T05:37:02;22.40;71.20
24618;DHT22;12762;51.730;5.356;2022-08-04T05:39:40;22.50;71.50
24618;DHT22;12762;51.730;5.356;2022-08-04T05:42:13;22.50;71.60
24618;DHT22;12762;51.730;5.356;2022-08-04T05:44:42;22.60;71.70
24618;DHT22;12762;51.730;5.356;2022-08-04T05:47:16;22.70;71.90
24618;DHT22;12762;51.730;5.356;2022-08-04T05:49:43;22.70;71.70
24618;DHT22;12762;51.730;5.356;2022-08-04T05:52:24;22.80;71.80
24618;DHT22;12762;51.730;5.356;2022-08-04T05:54:53;22.90;71.80
24618;DHT22;12762;51.730;5.356;2022-08-04T05:57:21;23.00;71.90
24618;DHT22;12762;51.730;5.356;2022-08-04T05:59:50;23.00;71.90
24618;DHT22;12762;51.730;5.356;2022-08-04T06:02:18;23.10;72.00
24618;DHT22;12762;51.730;5.356;2022-08-04T06:04:48;23.20;72.20
24618;DHT22;12762;51.730;5.356;2022-08-04T06:07:16;23.20;72.40
24618;DHT22;12762;51.730;5.356;2022-08-04T06:09:43;23.30;72.50
24618;DHT22;12762;51.730;5.356;2022-08-04T06:12:38;23.40;72.60
24618;DHT22;12762;51.730;5.356;2022-08-04T06:15:08;23.50;71.90
24618;DHT22;12762;51.730;5.356;2022-08-04T06:17:43;23.50;72.00
24618;DHT22;12762;51.730;5.356;2022-08-04T06:20:33;23.60;72.00
24618;DHT22;12762;51.730;5.356;2022-08-04T06:23:06;23.60;71.80
24618;DHT22;12762;51.730;5.356;2022-08-04T06:25:41;23.70;71.90
24618;DHT22;12762;51.730;5.356;2022-08-04T06:28:09;23.80;71.70
24618;DHT22;12762;51.730;5.356;2022-08-04T06:30:38;23.80;71.60
24618;DHT22;12762;51.730;5.356;2022-08-04T06:33:07;23.90;71.60
24618;DHT22;12762;51.730;5.356;2022-08-04T06:36:19;23.90;71.50
24618;DHT22;12762;51.730;5.356;2022-08-04T06:38:46;24.10;71.30
24618;DHT22;12762;51.730;5.356;2022-08-04T06:41:24;24.10;71.10
24618;DHT22;12762;51.730;5.356;2022-08-04T06:43:52;24.20;70.90
24618;DHT22;12762;51.730;5.356;2022-08-04T06:46:20;24.30;70.70
24618;DHT22;12762;51.730;5.356;2022-08-04T06:48:48;24.30;70.70
24618;DHT22;12762;51.730;5.356;2022-08-04T06:51:17;24.40;70.80
24618;DHT22;12762;51.730;5.356;2022-08-04T06:53:59;24.50;70.70
24618;DHT22;12762;51.730;5.356;2022-08-04T06:56:26;24.60;70.40
24618;DHT22;12762;51.730;5.356;2022-08-04T06:58:54;24.70;70.30
24618;DHT22;12762;51.730;5.356;2022-08-04T07:01:22;24.80;70.10
24618;DHT22;12762;51.730;5.356;2022-08-04T07:03:51;24.90;70.10
24618;DHT22;12762;51.730;5.356;2022-08-04T07:06:20;25.00;69.90
24618;DHT22;12762;51.730;5.356;2022-08-04T07:08:49;25.10;69.50
24618;DHT22;12762;51.730;5.356;2022-08-04T07:11:16;25.10;69.20
24618;DHT22;12762;51.730;5.356;2022-08-04T07:13:44;25.20;69.10
24618;DHT22;12762;51.730;5.356;2022-08-04T07:16:15;25.30;69.20
24618;DHT22;12762;51.730;5.356;2022-08-04T07:18:42;25.40;69.20
24618;DHT22;12762;51.730;5.356;2022-08-04T07:21:10;25.80;69.40
24618;DHT22;12762;51.730;5.356;2022-08-04T07:23:44;26.40;68.70
24618;DHT22;12762;51.730;5.356;2022-08-04T07:26:11;26.90;67.40
24618;DHT22;12762;51.730;5.356;2022-08-04T07:28:41;27.40;66.30
24618;DHT22;12762;51.730;5.356;2022-08-04T07:31:16;27.70;65.10
24618;DHT22;12762;51.730;5.356;2022-08-04T07:34:01;28.00;64.10
24618;DHT22;12762;51.730;5.356;2022-08-04T07:36:52;28.50;62.90
24618;DHT22;12762;51.730;5.356;2022-08-04T07:39:23;29.10;61.70
24618;DHT22;12762;51.730;5.356;2022-08-04T07:41:56;29.50;59.80
24618;DHT22;12762;51.730;5.356;2022-08-04T07:44:23;29.90;59.00
24618;DHT22;12762;51.730;5.356;2022-08-04T07:46:50;30.20;58.30
24618;DHT22;12762;51.730;5.356;2022-08-04T07:49:17;30.50;57.70
24618;DHT22;12762;51.730;5.356;2022-08-04T07:52:06;30.80;56.90
24618;DHT22;12762;51.730;5.356;2022-08-04T07:54:34;31.30;56.00
24618;DHT22;12762;51.730;5.356;2022-08-04T07:57:02;31.50;55.30
24618;DHT22;12762;51.730;5.356;2022-08-04T07:59:28;31.60;55.00
24618;DHT22;12762;51.730;5.356;2022-08-04T08:01:58;31.90;54.70
24618;DHT22;12762;51.730;5.356;2022-08-04T08:04:27;32.10;54.10
24618;DHT22;12762;51.730;5.356;2022-08-04T08:06:56;32.20;53.60
24618;DHT22;12762;51.730;5.356;2022-08-04T08:09:24;32.40;53.60
24618;DHT22;12762;51.730;5.356;2022-08-04T08:11:52;32.60;53.50
24618;DHT22;12762;51.730;5.356;2022-08-04T08:14:39;32.70;52.80
24618;DHT22;12762;51.730;5.356;2022-08-04T08:17:06;32.80;52.80
24618;DHT22;12762;51.730;5.356;2022-08-04T08:19:34;32.80;52.60
24618;DHT22;12762;51.730;5.356;2022-08-04T08:22:01;32.70;52.20
24618;DHT22;12762;51.730;5.356;2022-08-04T08:24:32;32.70;52.20
24618;DHT22;12762;51.730;5.356;2022-08-04T08:27:00;32.60;52.30
24618;DHT22;12762;51.730;5.356;2022-08-04T08:29:32;32.60;52.30
24618;DHT22;12762;51.730;5.356;2022-08-04T08:32:00;32.60;52.40
24618;DHT22;12762;51.730;5.356;2022-08-04T08:34:34;32.60;52.20
24618;DHT22;12762;51.730;5.356;2022-08-04T08:39:57;32.60;52.30
24618;DHT22;12762;51.730;5.356;2022-08-04T08:50:51;32.50;51.10
24618;DHT22;12762;51.730;5.356;2022-08-04T09:02:38;33.00;51.30
24618;DHT22;12762;51.730;5.356;2022-08-04T09:10:48;33.00;50.00
24618;DHT22;12762;51.730;5.356;2022-08-04T09:13:23;32.80;50.20
24618;DHT22;12762;51.730;5.356;2022-08-04T09:18:51;33.10;50.20
24618;DHT22;12762;51.730;5.356;2022-08-04T09:27:14;32.70;50.30
24618;DHT22;12762;51.730;5.356;2022-08-04T09:38:14;31.70;51.80
24618;DHT22;12762;51.730;5.356;2022-08-04T09:41:03;31.40;51.90
24618;DHT22;12762;51.730;5.356;2022-08-04T09:44:17;31.30;52.40
24618;DHT22;12762;51.730;5.356;2022-08-04T09:47:33;31.10;52.70
24618;DHT22;12762;51.730;5.356;2022-08-04T09:50:31;31.00;53.00
24618;DHT22;12762;51.730;5.356;2022-08-04T09:57:06;30.60;53.90
24618;DHT22;12762;51.730;5.356;2022-08-04T09:59:35;30.40;54.00
24618;DHT22;12762;51.730;5.356;2022-08-04T10:02:08;30.10;54.40
24618;DHT22;12762;51.730;5.356;2022-08-04T10:04:38;30.00;55.10
24618;DHT22;12762;51.730;5.356;2022-08-04T10:10:20;29.60;55.40
24618;DHT22;12762;51.730;5.356;2022-08-04T10:15:42;29.40;55.80
24618;DHT22;12762;51.730;5.356;2022-08-04T10:29:18;28.00;57.40
24618;DHT22;12762;51.730;5.356;2022-08-04T10:31:59;27.90;58.20
24618;DHT22;12762;51.730;5.356;2022-08-04T10:34:43;27.70;58.50
24618;DHT22;12762;51.730;5.356;2022-08-04T10:37:27;27.60;59.20
24618;DHT22;12762;51.730;5.356;2022-08-04T10:40:22;27.40;59.40
24618;DHT22;12762;51.730;5.356;2022-08-04T10:45:55;27.10;60.50
24618;DHT22;12762;51.730;5.356;2022-08-04T10:51:22;27.00;60.90
24618;DHT22;12762;51.730;5.356;2022-08-04T10:53:57;26.90;61.40
24618;DHT22;12762;51.730;5.356;2022-08-04T10:56:32;26.90;61.70
24618;DHT22;12762;51.730;5.356;2022-08-04T10:59:09;26.90;62.70
24618;DHT22;12762;51.730;5.356;2022-08-04T11:01:38;27.00;62.90
24618;DHT22;12762;51.730;5.356;2022-08-04T11:04:36;27.00;62.20
24618;DHT22;12762;51.730;5.356;2022-08-04T11:07:07;27.10;62.80
24618;DHT22;12762;51.730;5.356;2022-08-04T11:09:39;27.20;62.60
24618;DHT22;12762;51.730;5.356;2022-08-04T11:12:25;27.20;63.00
24618;DHT22;12762;51.730;5.356;2022-08-04T11:15:10;27.20;62.70
24618;DHT22;12762;51.730;5.356;2022-08-04T11:17:40;27.20;62.10
24618;DHT22;12762;51.730;5.356;2022-08-04T11:20:37;27.20;62.00
24618;DHT22;12762;51.730;5.356;2022-08-04T11:23:12;27.10;61.60
24618;DHT22;12762;51.730;5.356;2022-08-04T11:25:50;27.10;62.50
24618;DHT22;12762;51.730;5.356;2022-08-04T11:28:21;27.20;63.00
24618;DHT22;12762;51.730;5.356;2022-08-04T11:31:04;27.20;62.30
24618;DHT22;12762;51.730;5.356;2022-08-04T11:36:29;27.30;61.70
24618;DHT22;12762;51.730;5.356;2022-08-04T11:39:29;27.30;61.60
24618;DHT22;12762;51.730;5.356;2022-08-04T11:47:43;27.10;62.20
24618;DHT22;12762;51.730;5.356;2022-08-04T11:50:21;27.20;62.30
24618;DHT22;12762;51.730;5.356;2022-08-04T11:52:52;27.50;62.60
24618;DHT22;12762;51.730;5.356;2022-08-04T11:55:21;27.80;61.60
24618;DHT22;12762;51.730;5.356;2022-08-04T11:57:50;28.10;60.30
24618;DHT22;12762;51.730;5.356;2022-08-04T12:00:20;28.10;59.50
24618;DHT22;12762;51.730;5.356;2022-08-04T12:05:20;28.10;59.20
24618;DHT22;12762;51.730;5.356;2022-08-04T12:11:04;28.20;58.80
24618;DHT22;12762;51.730;5.356;2022-08-04T12:13:48;28.30;58.70
24618;DHT22;12762;51.730;5.356;2022-08-04T12:16:21;28.30;58.70
24618;DHT22;12762;51.730;5.356;2022-08-04T12:19:07;28.40;58.40
24618;DHT22;12762;51.730;5.356;2022-08-04T12:21:43;28.50;58.40
24618;DHT22;12762;51.730;5.356;2022-08-04T12:24:26;28.50;58.20
24618;DHT22;12762;51.730;5.356;2022-08-04T12:26:58;28.80;58.00
24618;DHT22;12762;51.730;5.356;2022-08-04T12:29:32;29.10;57.30
24618;DHT22;12762;51.730;5.356;2022-08-04T12:32:24;29.30;57.00
24618;DHT22;12762;51.730;5.356;2022-08-04T12:37:43;29.70;56.10
24618;DHT22;12762;51.730;5.356;2022-08-04T12:40:44;30.00;55.50
24618;DHT22;12762;51.730;5.356;2022-08-04T12:43:41;30.30;55.40
24618;DHT22;12762;51.730;5.356;2022-08-04T12:46:16;30.50;54.80
24618;DHT22;12762;51.730;5.356;2022-08-04T12:48:46;30.70;54.40
24618;DHT22;12762;51.730;5.356;2022-08-04T12:51:13;30.90;53.80
24618;DHT22;12762;51.730;5.356;2022-08-04T12:54:01;31.00;53.40
24618;DHT22;12762;51.730;5.356;2022-08-04T12:56:29;31.10;53.20
24618;DHT22;12762;51.730;5.356;2022-08-04T12:59:06;31.30;53.30
24618;DHT22;12762;51.730;5.356;2022-08-04T13:01:39;31.50;53.10
24618;DHT22;12762;51.730;5.356;2022-08-04T13:04:33;31.70;52.60
24618;DHT22;12762;51.730;5.356;2022-08-04T13:07:18;31.90;51.90
24618;DHT22;12762;51.730;5.356;2022-08-04T13:09:47;31.90;52.10
24618;DHT22;12762;51.730;5.356;2022-08-04T13:12:21;31.90;51.70
24618;DHT22;12762;51.730;5.356;2022-08-04T13:15:11;32.00;51.40
24618;DHT22;12762;51.730;5.356;2022-08-04T13:17:49;32.10;51.20
24618;DHT22;12762;51.730;5.356;2022-08-04T13:20:24;32.10;50.90
24618;DHT22;12762;51.730;5.356;2022-08-04T13:23:07;32.20;50.60
24618;DHT22;12762;51.730;5.356;2022-08-04T13:25:43;32.30;50.50
24618;DHT22;12762;51.730;5.356;2022-08-04T13:28:32;32.50;50.50
24618;DHT22;12762;51.730;5.356;2022-08-04T13:31:04;32.70;49.50
24618;DHT22;12762;51.730;5.356;2022-08-04T13:33:33;32.80;48.50
24618;DHT22;12762;51.730;5.356;2022-08-04T13:36:01;32.90;49.00
24618;DHT22;12762;51.730;5.356;2022-08-04T13:38:29;33.00;49.40
24618;DHT22;12762;51.730;5.356;2022-08-04T13:40:59;33.10;49.40
24618;DHT22;12762;51.730;5.356;2022-08-04T13:43:41;33.30;48.70
24618;DHT22;12762;51.730;5.356;2022-08-04T13:46:33;33.50;49.00
24618;DHT22;12762;51.730;5.356;2022-08-04T13:49:02;33.60;48.50
24618;DHT22;12762;51.730;5.356;2022-08-04T13:52:04;33.70;47.30
24618;DHT22;12762;51.730;5.356;2022-08-04T13:54:45;33.70;46.80
24618;DHT22;12762;51.730;5.356;2022-08-04T13:57:16;33.50;47.10
24618;DHT22;12762;51.730;5.356;2022-08-04T13:59:51;33.70;47.30
24618;DHT22;12762;51.730;5.356;2022-08-04T14:02:32;33.70;47.10
24618;DHT22;12762;51.730;5.356;2022-08-04T14:05:06;34.00;47.10
24618;DHT22;12762;51.730;5.356;2022-08-04T14:07:46;34.00;46.80
24618;DHT22;12762;51.730;5.356;2022-08-04T14:10:16;34.10;45.70
24618;DHT22;12762;51.730;5.356;2022-08-04T14:12:47;34.00;46.00
24618;DHT22;12762;51.730;5.356;2022-08-04T14:15:34;34.10;45.80
24618;DHT22;12762;51.730;5.356;2022-08-04T14:18:29;34.30;46.40
24618;DHT22;12762;51.730;5.356;2022-08-04T14:21:12;34.30;45.70
24618;DHT22;12762;51.730;5.356;2022-08-04T14:26:30;34.60;45.40
24618;DHT22;12762;51.730;5.356;2022-08-04T14:29:14;34.70;45.50
24618;DHT22;12762;51.730;5.356;2022-08-04T14:32:05;34.70;44.90
24618;DHT22;12762;51.730;5.356;2022-08-04T14:34:41;34.60;44.40
24618;DHT22;12762;51.730;5.356;2022-08-04T14:37:13;34.40;44.00
24618;DHT22;12762;51.730;5.356;2022-08-04T14:39:49;34.10;44.00
24618;DHT22;12762;51.730;5.356;2022-08-04T14:42:42;33.80;44.80
24618;DHT22;12762;51.730;5.356;2022-08-04T14:45:09;33.60;45.20
24618;DHT22;12762;51.730;5.356;2022-08-04T14:47:45;33.50;45.50
24618;DHT22;12762;51.730;5.356;2022-08-04T14:50:19;33.40;45.60
24618;DHT22;12762;51.730;5.356;2022-08-04T14:52:46;33.40;45.40
24618;DHT22;12762;51.730;5.356;2022-08-04T14:55:17;33.40;45.30
24618;DHT22;12762;51.730;5.356;2022-08-04T14:57:49;33.30;45.00
24618;DHT22;12762;51.730;5.356;2022-08-04T15:00:39;33.20;45.60
24618;DHT22;12762;51.730;5.356;2022-08-04T15:03:07;33.10;45.70
24618;DHT22;12762;51.730;5.356;2022-08-04T15:05:36;33.10;45.60
24618;DHT22;12762;51.730;5.356;2022-08-04T15:08:25;33.10;45.10
24618;DHT22;12762;51.730;5.356;2022-08-04T15:11:01;33.20;45.50
24618;DHT22;12762;51.730;5.356;2022-08-04T15:13:30;33.40;45.10
24618;DHT22;12762;51.730;5.356;2022-08-04T15:15:58;33.60;44.90
24618;DHT22;12762;51.730;5.356;2022-08-04T15:18:35;33.80;44.60
24618;DHT22;12762;51.730;5.356;2022-08-04T15:21:03;34.00;44.10
24618;DHT22;12762;51.730;5.356;2022-08-04T15:23:30;34.10;43.80
24618;DHT22;12762;51.730;5.356;2022-08-04T15:26:08;34.30;43.60
24618;DHT22;12762;51.730;5.356;2022-08-04T15:28:38;34.40;43.30
24618;DHT22;12762;51.730;5.356;2022-08-04T15:31:06;34.40;43.00
24618;DHT22;12762;51.730;5.356;2022-08-04T15:33:54;34.20;43.00
24618;DHT22;12762;51.730;5.356;2022-08-04T15:39:58;34.00;43.00
24618;DHT22;12762;51.730;5.356;2022-08-04T15:42:40;33.70;43.50
24618;DHT22;12762;51.730;5.356;2022-08-04T15:47:42;33.60;43.50
24618;DHT22;12762;51.730;5.356;2022-08-04T15:50:19;33.40;43.00
24618;DHT22;12762;51.730;5.356;2022-08-04T15:55:38;33.20;43.50
24618;DHT22;12762;51.730;5.356;2022-08-04T15:58:11;33.10;43.50
24618;DHT22;12762;51.730;5.356;2022-08-04T16:16:44;32.30;44.40
24618;DHT22;12762;51.730;5.356;2022-08-04T16:19:51;32.30;44.50
24618;DHT22;12762;51.730;5.356;2022-08-04T16:22:33;32.20;44.70
24618;DHT22;12762;51.730;5.356;2022-08-04T16:25:00;32.20;44.90
24618;DHT22;12762;51.730;5.356;2022-08-04T16:27:39;32.20;44.60
24618;DHT22;12762;51.730;5.356;2022-08-04T16:30:08;32.30;44.50
24618;DHT22;12762;51.730;5.356;2022-08-04T16:32:42;32.30;44.40
24618;DHT22;12762;51.730;5.356;2022-08-04T16:35:25;32.30;44.00
24618;DHT22;12762;51.730;5.356;2022-08-04T16:38:09;32.40;44.00
24618;DHT22;12762;51.730;5.356;2022-08-04T16:40:38;32.30;43.60
24618;DHT22;12762;51.730;5.356;2022-08-04T16:43:20;32.20;43.70
24618;DHT22;12762;51.730;5.356;2022-08-04T16:45:53;32.20;43.70
24618;DHT22;12762;51.730;5.356;2022-08-04T16:50:58;32.10;44.00
24618;DHT22;12762;51.730;5.356;2022-08-04T16:53:42;32.10;43.90
24618;DHT22;12762;51.730;5.356;2022-08-04T16:56:31;32.00;43.90
24618;DHT22;12762;51.730;5.356;2022-08-04T16:59:08;31.90;43.90
24618;DHT22;12762;51.730;5.356;2022-08-04T17:01:37;31.80;44.10
24618;DHT22;12762;51.730;5.356;2022-08-04T17:04:04;31.70;44.00
24618;DHT22;12762;51.730;5.356;2022-08-04T17:06:36;31.60;44.10
24618;DHT22;12762;51.730;5.356;2022-08-04T17:09:15;31.50;44.20
24618;DHT22;12762;51.730;5.356;2022-08-04T17:11:43;31.30;44.30
24618;DHT22;12762;51.730;5.356;2022-08-04T17:14:11;31.20;44.70
24618;DHT22;12762;51.730;5.356;2022-08-04T17:16:42;31.10;44.70
24618;DHT22;12762;51.730;5.356;2022-08-04T17:19:09;31.00;44.60
24618;DHT22;12762;51.730;5.356;2022-08-04T17:22:00;30.80;44.70
24618;DHT22;12762;51.730;5.356;2022-08-04T17:24:35;30.60;44.70
24618;DHT22;12762;51.730;5.356;2022-08-04T17:27:05;30.40;45.10
24618;DHT22;12762;51.730;5.356;2022-08-04T17:29:52;30.20;45.40
24618;DHT22;12762;51.730;5.356;2022-08-04T17:32:20;30.00;45.50
24618;DHT22;12762;51.730;5.356;2022-08-04T17:34:57;29.80;45.70
24618;DHT22;12762;51.730;5.356;2022-08-04T17:37:25;29.70;45.80
24618;DHT22;12762;51.730;5.356;2022-08-04T17:40:15;29.50;45.90
24618;DHT22;12762;51.730;5.356;2022-08-04T17:43:04;29.20;45.90
24618;DHT22;12762;51.730;5.356;2022-08-04T17:54:34;28.80;47.10
24618;DHT22;12762;51.730;5.356;2022-08-04T17:57:17;28.60;46.80
24618;DHT22;12762;51.730;5.356;2022-08-04T17:59:51;28.50;46.90
24618;DHT22;12762;51.730;5.356;2022-08-04T18:02:26;28.40;47.20
24618;DHT22;12762;51.730;5.356;2022-08-04T18:05:00;28.20;47.20
24618;DHT22;12762;51.730;5.356;2022-08-04T18:07:40;28.10;47.30
24618;DHT22;12762;51.730;5.356;2022-08-04T18:10:42;27.90;47.60
24618;DHT22;12762;51.730;5.356;2022-08-04T18:13:26;27.80;47.80
24618;DHT22;12762;51.730;5.356;2022-08-04T18:16:01;27.60;47.90
24618;DHT22;12762;51.730;5.356;2022-08-04T18:18:29;27.50;48.80
24618;DHT22;12762;51.730;5.356;2022-08-04T18:20:55;27.40;48.40
24618;DHT22;12762;51.730;5.356;2022-08-04T18:23:28;27.30;48.60
24618;DHT22;12762;51.730;5.356;2022-08-04T18:25:58;27.30;48.70
24618;DHT22;12762;51.730;5.356;2022-08-04T18:28:29;27.20;48.80
24618;DHT22;12762;51.730;5.356;2022-08-04T18:30:59;27.10;49.00
24618;DHT22;12762;51.730;5.356;2022-08-04T18:33:26;27.00;49.10
24618;DHT22;12762;51.730;5.356;2022-08-04T18:36:10;26.90;49.20
24618;DHT22;12762;51.730;5.356;2022-08-04T18:38:59;26.90;49.40
24618;DHT22;12762;51.730;5.356;2022-08-04T18:41:44;26.70;49.50
24618;DHT22;12762;51.730;5.356;2022-08-04T18:44:30;26.70;49.70
24618;DHT22;12762;51.730;5.356;2022-08-04T18:46:59;26.60;49.90
24618;DHT22;12762;51.730;5.356;2022-08-04T18:49:46;26.50;50.00
24618;DHT22;12762;51.730;5.356;2022-08-04T18:52:33;26.40;50.00
24618;DHT22;12762;51.730;5.356;2022-08-04T18:55:10;26.40;50.20
24618;DHT22;12762;51.730;5.356;2022-08-04T18:57:37;26.30;50.20
24618;DHT22;12762;51.730;5.356;2022-08-04T19:00:24;26.20;50.10
24618;DHT22;12762;51.730;5.356;2022-08-04T19:02:51;26.10;49.90
24618;DHT22;12762;51.730;5.356;2022-08-04T19:05:18;26.10;49.90
24618;DHT22;12762;51.730;5.356;2022-08-04T19:07:46;26.00;50.00
24618;DHT22;12762;51.730;5.356;2022-08-04T19:10:28;26.00;50.00
24618;DHT22;12762;51.730;5.356;2022-08-04T19:12:57;26.00;50.10
24618;DHT22;12762;51.730;5.356;2022-08-04T19:15:27;25.90;50.20
24618;DHT22;12762;51.730;5.356;2022-08-04T19:18:00;25.80;50.30
24618;DHT22;12762;51.730;5.356;2022-08-04T19:20:28;25.80;50.30
24618;DHT22;12762;51.730;5.356;2022-08-04T19:22:56;25.70;50.40
24618;DHT22;12762;51.730;5.356;2022-08-04T19:25:44;25.70;50.40
24618;DHT22;12762;51.730;5.356;2022-08-04T19:28:31;25.60;50.40
24618;DHT22;12762;51.730;5.356;2022-08-04T19:31:04;25.50;50.50
24618;DHT22;12762;51.730;5.356;2022-08-04T19:33:31;25.40;50.60
24618;DHT22;12762;51.730;5.356;2022-08-04T19:36:19;25.30;50.70
24618;DHT22;12762;51.730;5.356;2022-08-04T19:38:54;25.30;50.90
24618;DHT22;12762;51.730;5.356;2022-08-04T19:41:21;25.20;50.90
24618;DHT22;12762;51.730;5.356;2022-08-04T19:43:51;25.20;51.00
24618;DHT22;12762;51.730;5.356;2022-08-04T19:46:18;25.10;51.10
24618;DHT22;12762;51.730;5.356;2022-08-04T19:48:50;25.00;51.20
24618;DHT22;12762;51.730;5.356;2022-08-04T19:51:29;25.00;51.10
24618;DHT22;12762;51.730;5.356;2022-08-04T19:53:58;24.90;51.30
24618;DHT22;12762;51.730;5.356;2022-08-04T19:56:36;24.90;52.20
24618;DHT22;12762;51.730;5.356;2022-08-04T19:59:07;24.80;51.30
24618;DHT22;12762;51.730;5.356;2022-08-04T20:01:35;24.80;51.50
24618;DHT22;12762;51.730;5.356;2022-08-04T20:04:12;24.70;51.60
24618;DHT22;12762;51.730;5.356;2022-08-04T20:06:39;24.60;51.60
24618;DHT22;12762;51.730;5.356;2022-08-04T20:09:07;24.60;51.70
24618;DHT22;12762;51.730;5.356;2022-08-04T20:11:53;24.60;51.70
24618;DHT22;12762;51.730;5.356;2022-08-04T20:14:21;24.50;51.70
24618;DHT22;12762;51.730;5.356;2022-08-04T20:16:59;24.50;51.70
24618;DHT22;12762;51.730;5.356;2022-08-04T20:19:26;24.40;51.70
24618;DHT22;12762;51.730;5.356;2022-08-04T20:21:56;24.40;51.70
24618;DHT22;12762;51.730;5.356;2022-08-04T20:24:23;24.40;51.80
24618;DHT22;12762;51.730;5.356;2022-08-04T20:27:08;24.40;51.90
24618;DHT22;12762;51.730;5.356;2022-08-04T20:29:55;24.30;51.90
24618;DHT22;12762;51.730;5.356;2022-08-04T20:32:24;24.30;52.00
24618;DHT22;12762;51.730;5.356;2022-08-04T20:34:53;24.30;52.00
24618;DHT22;12762;51.730;5.356;2022-08-04T20:37:21;24.30;52.10
24618;DHT22;12762;51.730;5.356;2022-08-04T20:40:11;24.20;52.30
24618;DHT22;12762;51.730;5.356;2022-08-04T20:42:38;24.20;52.30
24618;DHT22;12762;51.730;5.356;2022-08-04T20:45:10;24.20;52.30
24618;DHT22;12762;51.730;5.356;2022-08-04T20:47:42;24.20;52.30